Time;durP1;ratioP1;P1;durP2;ratioP2;P2;SDS_P1;SDS_P2;PMS_P1;PMS_P2;Temp;Humidity;BMP_temperature;BMP_pressure;BME280_temperature;BME280_humidity;BME280_pressure;Samples;Min_cycle;Max_cycle;Signal;HPM_P1;HPM_P2
2022/12/06 00:01:28;;;;;;;19.57;10.57;;;;;;;;;;5010489;28;20239;-69
2022/12/06 00:03:56;;;;;;;21.53;11.10;;;;;;;;;;5021553;28;20199;-69
2022/12/06 00:06:24;;;;;;;20.43;11.67;;;;;;;;;;5022510;28;20218;-69
2022/12/06 00:08:50;;;;;;;20.77;11.00;;;;;;;;;;5026204;28;20617;-69
2022/12/06 00:11:18;;;;;;;21.57;12.23;;;;;;;;;;5028136;28;20640;-69
2022/12/06 00:13:44;;;;;;;21.43;11.47;;;;;;;;;;5026409;28;20653;-69
2022/12/06 00:16:12;;;;;;;22.97;11.20;;;;;;;;;;5020521;28;20288;-69
2022/12/06 00:18:39;;;;;;;23.93;12.13;;;;;;;;;;5012300;28;20178;-70
2022/12/06 00:21:22;;;;;;;20.13;11.23;;;;;;;;;;5008340;28;20191;-69
2022/12/06 00:23:52;;;;;;;23.30;12.17;;;;;;;;;;5017514;28;20587;-69
2022/12/06 00:26:19;;;;;;;23.73;12.63;;;;;;;;;;5021664;28;20211;-69
2022/12/06 00:28:45;;;;;;;28.37;11.70;;;;;;;;;;5013276;28;20181;-69
2022/12/06 00:31:19;;;;;;;22.63;12.03;;;;;;;;;;5024719;28;20232;-69
2022/12/06 00:33:45;;;;;;;30.50;12.77;;;;;;;;;;5029723;28;20181;-69
2022/12/06 00:36:16;;;;;;;30.03;11.97;;;;;;;;;;5026136;28;20597;-70
2022/12/06 00:38:42;;;;;;;22.33;11.97;;;;;;;;;;5019454;28;20250;-69
2022/12/06 00:41:10;;;;;;;27.07;12.67;;;;;;;;;;5016172;28;20278;-69
2022/12/06 00:43:36;;;;;;;26.10;11.83;;;;;;;;;;5029099;28;20221;-69
2022/12/06 00:46:03;;;;;;;25.00;12.63;;;;;;;;;;5020759;28;20678;-69
2022/12/06 00:48:29;;;;;;;25.57;11.80;;;;;;;;;;5020252;28;20210;-69
2022/12/06 00:50:55;;;;;;;27.20;12.70;;;;;;;;;;5022524;28;20224;-69
2022/12/06 00:53:20;;;;;;;25.83;12.73;;;;;;;;;;5029159;28;20696;-69
2022/12/06 00:55:46;;;;;;;25.17;12.67;;;;;;;;;;5022506;28;20229;-69
2022/12/06 00:58:12;;;;;;;25.00;12.27;;;;;;;;;;5029114;28;20653;-69
2022/12/06 01:00:37;;;;;;;25.63;12.47;;;;;;;;;;5020717;28;20206;-70
2022/12/06 01:03:03;;;;;;;28.77;13.20;;;;;;;;;;5024864;28;20253;-69
2022/12/06 01:05:29;;;;;;;22.87;12.13;;;;;;;;;;5021717;28;20864;-69
2022/12/06 01:07:54;;;;;;;24.03;11.73;;;;;;;;;;5024306;28;20266;-70
2022/12/06 01:10:20;;;;;;;22.57;10.57;;;;;;;;;;5027519;28;20320;-69
2022/12/06 01:12:46;;;;;;;24.30;11.13;;;;;;;;;;5021057;28;20494;-69
2022/12/06 01:15:12;;;;;;;23.40;10.37;;;;;;;;;;5027793;28;20225;-69
2022/12/06 01:17:38;;;;;;;20.17;10.00;;;;;;;;;;5026928;28;20185;-69
2022/12/06 01:20:05;;;;;;;20.00;9.90;;;;;;;;;;5038407;28;20699;-69
2022/12/06 01:22:30;;;;;;;24.37;10.27;;;;;;;;;;5037589;28;20254;-69
2022/12/06 01:24:55;;;;;;;22.20;10.80;;;;;;;;;;5039323;28;20230;-69
2022/12/06 01:27:21;;;;;;;22.57;9.90;;;;;;;;;;5026561;28;20550;-69
2022/12/06 01:29:46;;;;;;;19.63;9.67;;;;;;;;;;5027884;28;20552;-68
2022/12/06 01:32:12;;;;;;;19.20;9.70;;;;;;;;;;5022679;28;20186;-69
2022/12/06 01:34:37;;;;;;;19.57;9.90;;;;;;;;;;5017966;28;20190;-69
2022/12/06 01:37:03;;;;;;;20.83;10.30;;;;;;;;;;5018773;28;20194;-69
2022/12/06 01:39:28;;;;;;;20.67;10.13;;;;;;;;;;5027614;28;20194;-68
2022/12/06 01:41:53;;;;;;;19.60;8.87;;;;;;;;;;5033820;28;20216;-69
2022/12/06 01:44:40;;;;;;;22.43;9.53;;;;;;;;;;5034216;28;20185;-69
2022/12/06 01:47:12;;;;;;;18.47;9.10;;;;;;;;;;5026806;28;20193;-69
2022/12/06 01:49:39;;;;;;;19.17;9.83;;;;;;;;;;5039437;28;20276;-69
2022/12/06 01:52:09;;;;;;;21.93;10.77;;;;;;;;;;5038989;28;20192;-69
2022/12/06 01:54:35;;;;;;;20.00;9.47;;;;;;;;;;5038144;28;20193;-69
2022/12/06 01:57:02;;;;;;;18.63;10.63;;;;;;;;;;5019337;28;20181;-69
2022/12/06 01:59:28;;;;;;;25.27;10.63;;;;;;;;;;5016730;28;20214;-67
2022/12/06 02:01:54;;;;;;;25.43;11.03;;;;;;;;;;5027483;28;20560;-67
2022/12/06 02:04:21;;;;;;;25.13;11.27;;;;;;;;;;5029919;28;20181;-69
2022/12/06 02:06:49;;;;;;;22.73;11.13;;;;;;;;;;5018429;28;20206;-69
2022/12/06 02:09:16;;;;;;;20.23;10.40;;;;;;;;;;5042428;28;20233;-70
2022/12/06 02:11:42;;;;;;;21.00;10.83;;;;;;;;;;5023037;28;20721;-70
2022/12/06 02:14:12;;;;;;;22.53;11.23;;;;;;;;;;5030013;28;20182;-69
2022/12/06 02:17:02;;;;;;;22.17;10.57;;;;;;;;;;5024173;28;20175;-70
2022/12/06 02:19:59;;;;;;;19.43;10.10;;;;;;;;;;5027490;28;20681;-69
2022/12/06 02:22:39;;;;;;;23.17;10.47;;;;;;;;;;5017764;28;20190;-69
2022/12/06 02:25:22;;;;;;;23.80;10.30;;;;;;;;;;5026531;28;20214;-68
2022/12/06 02:28:13;;;;;;;26.07;10.43;;;;;;;;;;5028732;28;20177;-68
2022/12/06 02:30:58;;;;;;;23.53;10.57;;;;;;;;;;5024823;28;20206;-69
2022/12/06 02:33:41;;;;;;;27.33;11.07;;;;;;;;;;5026784;28;20193;-69
2022/12/06 02:36:20;;;;;;;20.93;10.03;;;;;;;;;;5024858;28;20194;-69
2022/12/06 02:38:56;;;;;;;21.57;10.70;;;;;;;;;;5028768;28;20186;-69
2022/12/06 02:41:37;;;;;;;26.50;10.50;;;;;;;;;;5025818;28;20310;-70
2022/12/06 02:44:05;;;;;;;22.80;8.47;;;;;;;;;;5017745;28;20293;-69
2022/12/06 02:46:35;;;;;;;20.90;9.93;;;;;;;;;;5014421;28;20284;-69
2022/12/06 02:49:03;;;;;;;25.17;9.70;;;;;;;;;;5025115;28;20208;-69
2022/12/06 02:51:31;;;;;;;20.70;9.40;;;;;;;;;;5027137;28;20466;-70
2022/12/06 02:53:59;;;;;;;22.10;9.50;;;;;;;;;;5032389;28;20190;-69
2022/12/06 02:56:26;;;;;;;22.77;10.00;;;;;;;;;;5026413;28;20273;-70
2022/12/06 02:58:51;;;;;;;25.00;9.73;;;;;;;;;;5021216;28;20572;-69
2022/12/06 03:01:22;;;;;;;20.23;9.83;;;;;;;;;;5021948;28;20280;-69
2022/12/06 03:04:05;;;;;;;26.77;10.13;;;;;;;;;;5029915;28;20186;-69
2022/12/06 03:06:53;;;;;;;28.03;9.73;;;;;;;;;;5025117;28;20213;-69
2022/12/06 03:09:52;;;;;;;21.37;9.90;;;;;;;;;;5022626;28;20232;-67
2022/12/06 03:12:23;;;;;;;25.00;9.60;;;;;;;;;;5021611;28;20208;-68
2022/12/06 03:15:10;;;;;;;21.70;9.00;;;;;;;;;;5026374;28;20190;-69
2022/12/06 03:17:51;;;;;;;21.77;10.43;;;;;;;;;;5024574;28;20200;-69
2022/12/06 03:20:41;;;;;;;23.63;9.43;;;;;;;;;;5038090;28;20656;-69
2022/12/06 03:23:10;;;;;;;22.77;9.47;;;;;;;;;;5029178;28;20514;-69
2022/12/06 03:25:37;;;;;;;23.00;9.83;;;;;;;;;;5030365;28;20237;-69
2022/12/06 03:28:05;;;;;;;21.33;10.00;;;;;;;;;;5015594;28;20585;-69
2022/12/06 03:30:33;;;;;;;19.37;9.53;;;;;;;;;;5024141;28;20194;-68
2022/12/06 03:33:00;;;;;;;26.83;10.47;;;;;;;;;;5017454;28;20216;-69
2022/12/06 03:35:30;;;;;;;22.90;8.93;;;;;;;;;;5023704;28;20174;-68
2022/12/06 03:38:03;;;;;;;26.47;10.67;;;;;;;;;;5017605;28;20191;-69
2022/12/06 03:40:32;;;;;;;25.87;10.33;;;;;;;;;;5025704;28;20182;-73
2022/12/06 03:42:59;;;;;;;20.10;9.53;;;;;;;;;;5026101;28;20244;-69
2022/12/06 03:45:39;;;;;;;24.83;9.97;;;;;;;;;;5020896;28;20301;-70
2022/12/06 03:48:33;;;;;;;19.07;9.77;;;;;;;;;;5026145;28;20201;-70
2022/12/06 03:51:12;;;;;;;17.57;7.90;;;;;;;;;;5018945;28;20210;-70
2022/12/06 03:53:52;;;;;;;20.50;9.07;;;;;;;;;;5030004;28;20193;-70
2022/12/06 03:56:18;;;;;;;23.00;9.13;;;;;;;;;;5036564;28;20178;-70
2022/12/06 03:58:44;;;;;;;23.60;9.50;;;;;;;;;;5017366;28;20252;-71
2022/12/06 04:01:10;;;;;;;22.40;8.10;;;;;;;;;;5028638;28;20253;-71
2022/12/06 04:03:35;;;;;;;21.13;8.50;;;;;;;;;;5017996;28;20760;-72
2022/12/06 04:06:02;;;;;;;15.63;8.37;;;;;;;;;;5023147;28;20221;-72
2022/12/06 04:08:27;;;;;;;17.67;8.97;;;;;;;;;;5009191;28;20187;-71
2022/12/06 04:10:53;;;;;;;17.17;7.57;;;;;;;;;;5028556;28;20186;-70
2022/12/06 04:13:18;;;;;;;17.73;7.77;;;;;;;;;;5023064;28;20265;-70
2022/12/06 04:15:43;;;;;;;17.67;7.23;;;;;;;;;;5023044;28;20614;-69
2022/12/06 04:18:13;;;;;;;14.00;6.57;;;;;;;;;;5025641;28;20584;-70
2022/12/06 04:23:40;;;;;;;13.50;6.43;;;;;;;;;;5026816;28;20258;-69
2022/12/06 04:26:08;;;;;;;9.83;5.80;;;;;;;;;;5028497;28;20267;-69
2022/12/06 04:39:30;;;;;;;15.93;6.40;;;;;;;;;;5017419;28;20198;-69
2022/12/06 04:44:40;;;;;;;14.17;5.73;;;;;;;;;;5024634;28;20274;-69
2022/12/06 04:47:06;;;;;;;15.03;5.77;;;;;;;;;;5029649;28;20355;-69
2022/12/06 04:49:32;;;;;;;14.70;5.60;;;;;;;;;;5028588;28;20189;-69
2022/12/06 04:51:57;;;;;;;12.10;6.07;;;;;;;;;;5030624;28;20181;-69
2022/12/06 04:54:23;;;;;;;10.60;5.03;;;;;;;;;;5027694;28;20193;-69
2022/12/06 04:56:49;;;;;;;14.23;5.63;;;;;;;;;;5027486;28;20344;-69
2022/12/06 04:59:14;;;;;;;15.70;6.47;;;;;;;;;;5027480;28;20276;-69
2022/12/06 05:01:40;;;;;;;11.47;5.70;;;;;;;;;;5031250;28;20233;-69
2022/12/06 05:04:05;;;;;;;14.93;5.53;;;;;;;;;;5026586;28;20266;-69
2022/12/06 05:06:31;;;;;;;12.97;5.27;;;;;;;;;;5028696;28;20208;-69
2022/12/06 05:08:56;;;;;;;13.63;6.03;;;;;;;;;;5019123;28;20292;-70
2022/12/06 05:11:21;;;;;;;13.57;6.87;;;;;;;;;;5027961;28;20256;-69
2022/12/06 05:13:47;;;;;;;14.37;7.10;;;;;;;;;;5021909;28;20631;-69
2022/12/06 05:16:12;;;;;;;15.60;7.33;;;;;;;;;;5017676;28;20185;-69
2022/12/06 05:18:37;;;;;;;16.10;6.57;;;;;;;;;;5023759;28;20754;-69
2022/12/06 05:21:11;;;;;;;17.33;7.33;;;;;;;;;;5008326;28;20265;-69
2022/12/06 05:23:37;;;;;;;14.93;8.87;;;;;;;;;;5009037;28;20646;-69
2022/12/06 05:26:05;;;;;;;15.77;7.03;;;;;;;;;;5028473;28;20267;-69
2022/12/06 05:28:31;;;;;;;14.53;7.13;;;;;;;;;;5022024;28;20593;-69
2022/12/06 05:30:57;;;;;;;15.93;6.83;;;;;;;;;;5027088;28;20174;-69
2022/12/06 05:33:23;;;;;;;14.27;6.90;;;;;;;;;;5026464;28;20252;-69
2022/12/06 05:35:49;;;;;;;21.23;6.67;;;;;;;;;;5016645;28;20273;-69
2022/12/06 05:38:14;;;;;;;18.63;7.23;;;;;;;;;;5016512;28;20284;-69
2022/12/06 05:40:40;;;;;;;13.87;6.53;;;;;;;;;;5010963;28;20562;-68
2022/12/06 05:43:06;;;;;;;15.97;6.53;;;;;;;;;;5015325;28;20228;-69
2022/12/06 05:45:31;;;;;;;17.87;6.93;;;;;;;;;;5033235;28;20214;-69
2022/12/06 05:47:56;;;;;;;12.40;6.20;;;;;;;;;;5029350;28;20186;-69
2022/12/06 05:50:22;;;;;;;16.27;6.57;;;;;;;;;;5029314;28;20185;-69
2022/12/06 05:52:47;;;;;;;15.03;6.60;;;;;;;;;;5027710;28;20186;-69
2022/12/06 05:55:12;;;;;;;14.67;5.93;;;;;;;;;;5030753;28;20200;-68
2022/12/06 05:57:38;;;;;;;14.80;6.43;;;;;;;;;;5035133;28;20175;-68
2022/12/06 06:00:04;;;;;;;13.17;6.43;;;;;;;;;;5026987;28;20289;-69
2022/12/06 06:02:29;;;;;;;11.87;6.13;;;;;;;;;;5029626;28;20370;-68
2022/12/06 06:04:55;;;;;;;17.27;6.77;;;;;;;;;;5031044;28;20558;-68
2022/12/06 06:07:20;;;;;;;18.43;6.67;;;;;;;;;;5030444;28;20217;-68
2022/12/06 06:09:45;;;;;;;17.40;6.93;;;;;;;;;;5020366;28;20190;-69
2022/12/06 06:12:10;;;;;;;14.30;6.87;;;;;;;;;;5017745;28;20186;-68
2022/12/06 06:14:36;;;;;;;15.30;6.47;;;;;;;;;;5016106;28;20570;-69
2022/12/06 06:17:01;;;;;;;13.47;6.77;;;;;;;;;;5015297;28;20273;-67
2022/12/06 06:19:26;;;;;;;14.13;6.40;;;;;;;;;;5016643;28;20183;-67
2022/12/06 06:21:52;;;;;;;15.33;6.70;;;;;;;;;;5013505;28;20290;-67
2022/12/06 06:24:17;;;;;;;15.47;7.40;;;;;;;;;;5013637;28;20189;-68
2022/12/06 06:26:42;;;;;;;18.00;7.60;;;;;;;;;;5015556;28;20207;-67
2022/12/06 06:29:08;;;;;;;15.67;7.50;;;;;;;;;;5017843;28;20191;-67
2022/12/06 06:31:34;;;;;;;15.80;6.70;;;;;;;;;;5019021;28;20209;-67
2022/12/06 06:33:59;;;;;;;15.70;6.27;;;;;;;;;;5022194;28;20277;-66
2022/12/06 06:36:24;;;;;;;15.27;7.07;;;;;;;;;;5035618;28;20670;-66
2022/12/06 06:38:50;;;;;;;20.77;6.93;;;;;;;;;;5030511;28;20178;-69
2022/12/06 06:41:15;;;;;;;17.83;7.43;;;;;;;;;;5024998;28;20190;-67
2022/12/06 06:43:41;;;;;;;16.63;7.10;;;;;;;;;;5022143;28;20273;-67
2022/12/06 06:46:06;;;;;;;16.00;7.00;;;;;;;;;;5029063;28;20351;-67
2022/12/06 06:48:34;;;;;;;17.77;7.10;;;;;;;;;;5024607;28;20870;-67
2022/12/06 06:51:09;;;;;;;16.40;6.77;;;;;;;;;;5022477;28;20204;-67
2022/12/06 06:53:35;;;;;;;17.73;6.77;;;;;;;;;;5029654;28;20589;-67
2022/12/06 06:56:01;;;;;;;15.63;6.70;;;;;;;;;;5016205;28;20186;-67
2022/12/06 06:58:27;;;;;;;13.87;6.87;;;;;;;;;;5022781;28;20182;-67
2022/12/06 07:00:54;;;;;;;13.30;6.03;;;;;;;;;;5024003;28;20269;-67
2022/12/06 07:03:20;;;;;;;16.40;6.20;;;;;;;;;;5025027;28;20281;-67
2022/12/06 07:05:54;;;;;;;12.67;6.33;;;;;;;;;;5027062;28;20740;-67
2022/12/06 07:08:19;;;;;;;16.77;6.60;;;;;;;;;;5025620;28;20245;-67
2022/12/06 07:10:47;;;;;;;15.43;5.97;;;;;;;;;;5026201;28;20256;-67
2022/12/06 07:13:14;;;;;;;14.70;6.57;;;;;;;;;;5028469;28;20806;-67
2022/12/06 07:15:40;;;;;;;14.70;5.87;;;;;;;;;;5021694;28;20247;-67
2022/12/06 07:18:05;;;;;;;13.67;6.23;;;;;;;;;;5012111;28;20641;-67
2022/12/06 07:20:30;;;;;;;16.00;6.03;;;;;;;;;;5012274;28;20844;-67
2022/12/06 07:22:56;;;;;;;11.63;5.20;;;;;;;;;;5008956;28;20224;-67
2022/12/06 07:25:21;;;;;;;17.30;5.50;;;;;;;;;;5017967;28;20372;-67
2022/12/06 07:27:46;;;;;;;11.30;5.40;;;;;;;;;;5035017;28;20653;-67
2022/12/06 07:30:12;;;;;;;11.53;5.37;;;;;;;;;;5024408;28;20657;-68
2022/12/06 07:32:38;;;;;;;18.40;6.13;;;;;;;;;;5031136;28;20194;-67
2022/12/06 07:35:03;;;;;;;12.10;6.33;;;;;;;;;;5011238;28;20182;-67
2022/12/06 07:37:29;;;;;;;15.13;5.80;;;;;;;;;;5009442;28;20182;-67
2022/12/06 07:39:54;;;;;;;13.03;5.87;;;;;;;;;;5016293;28;20231;-67
2022/12/06 07:45:06;;;;;;;18.50;6.40;;;;;;;;;;5012428;28;20671;-67
2022/12/06 07:47:37;;;;;;;11.57;5.90;;;;;;;;;;5008558;28;20175;-67
2022/12/06 07:50:04;;;;;;;12.93;5.90;;;;;;;;;;5013215;28;20244;-67
2022/12/06 07:52:32;;;;;;;17.23;6.10;;;;;;;;;;5010513;28;20538;-67
2022/12/06 07:54:57;;;;;;;14.50;5.60;;;;;;;;;;5008581;28;20719;-68
2022/12/06 07:57:22;;;;;;;14.00;5.93;;;;;;;;;;5008659;28;20195;-68
2022/12/06 07:59:48;;;;;;;16.57;6.87;;;;;;;;;;5008167;28;20298;-68
2022/12/06 08:02:19;;;;;;;20.80;6.90;;;;;;;;;;5012660;28;20254;-68
2022/12/06 08:04:44;;;;;;;11.53;6.27;;;;;;;;;;5015407;28;20186;-68
2022/12/06 08:07:10;;;;;;;16.63;7.50;;;;;;;;;;5014516;28;20225;-68
2022/12/06 08:09:35;;;;;;;16.90;6.77;;;;;;;;;;5008578;28;20190;-68
2022/12/06 08:12:00;;;;;;;15.43;6.17;;;;;;;;;;5034980;28;20350;-68
2022/12/06 08:14:26;;;;;;;16.80;6.57;;;;;;;;;;5013944;28;20205;-67
2022/12/06 08:16:51;;;;;;;9.93;6.10;;;;;;;;;;5009089;28;21064;-68
2022/12/06 08:19:17;;;;;;;13.67;6.77;;;;;;;;;;5024055;28;20323;-68
2022/12/06 08:21:42;;;;;;;16.13;6.63;;;;;;;;;;5017620;28;20586;-68
2022/12/06 08:24:07;;;;;;;13.00;6.53;;;;;;;;;;5022418;28;20255;-68
2022/12/06 08:26:33;;;;;;;15.33;6.67;;;;;;;;;;5020777;28;20202;-68
2022/12/06 08:29:00;;;;;;;14.87;6.40;;;;;;;;;;5024660;28;20185;-68
2022/12/06 08:31:25;;;;;;;18.90;7.03;;;;;;;;;;5033135;28;20213;-68
2022/12/06 08:33:50;;;;;;;16.87;7.13;;;;;;;;;;5012475;28;20711;-67
2022/12/06 08:36:18;;;;;;;17.03;6.83;;;;;;;;;;5015152;28;20191;-69
2022/12/06 08:38:45;;;;;;;18.13;7.27;;;;;;;;;;5015934;28;20237;-68
2022/12/06 08:43:57;;;;;;;17.73;7.87;;;;;;;;;;5011892;28;20200;-68
2022/12/06 08:46:22;;;;;;;15.57;7.63;;;;;;;;;;5020640;28;20297;-68
2022/12/06 08:48:48;;;;;;;19.07;7.57;;;;;;;;;;5010746;28;20274;-68
2022/12/06 08:51:13;;;;;;;17.20;7.03;;;;;;;;;;5020396;28;20481;-68
2022/12/06 08:53:38;;;;;;;16.07;6.77;;;;;;;;;;5019366;28;20285;-68
2022/12/06 08:56:04;;;;;;;13.33;6.47;;;;;;;;;;5008990;28;20191;-68
2022/12/06 08:58:29;;;;;;;18.70;6.40;;;;;;;;;;5011911;28;20194;-68
2022/12/06 09:00:55;;;;;;;17.80;6.30;;;;;;;;;;5013846;28;20305;-67
2022/12/06 09:03:20;;;;;;;21.40;7.00;;;;;;;;;;5018473;28;20294;-68
2022/12/06 09:05:46;;;;;;;13.43;6.47;;;;;;;;;;5008581;28;20215;-69
2022/12/06 09:08:11;;;;;;;21.77;6.77;;;;;;;;;;5006675;28;20183;-69
2022/12/06 09:10:36;;;;;;;10.67;5.80;;;;;;;;;;5011751;28;20191;-68
2022/12/06 09:13:02;;;;;;;13.40;6.07;;;;;;;;;;5011154;28;20183;-68
2022/12/06 09:15:27;;;;;;;11.33;5.47;;;;;;;;;;5009711;28;20212;-68
2022/12/06 09:17:52;;;;;;;9.17;5.20;;;;;;;;;;5008443;28;20222;-69
2022/12/06 09:20:18;;;;;;;14.80;5.90;;;;;;;;;;5009989;28;20191;-67
2022/12/06 09:22:44;;;;;;;11.50;5.03;;;;;;;;;;5007858;28;20570;-68
2022/12/06 09:25:10;;;;;;;14.20;6.10;;;;;;;;;;5012380;28;20632;-68
2022/12/06 09:27:36;;;;;;;24.00;6.53;;;;;;;;;;5013497;28;20240;-68
2022/12/06 09:30:01;;;;;;;19.20;6.83;;;;;;;;;;5011621;28;20194;-68
2022/12/06 09:32:27;;;;;;;14.07;5.23;;;;;;;;;;5011130;28;20642;-67
2022/12/06 09:34:52;;;;;;;13.43;5.27;;;;;;;;;;5009655;28;20194;-68
2022/12/06 09:37:18;;;;;;;12.57;5.70;;;;;;;;;;5009147;28;20552;-68
2022/12/06 09:39:48;;;;;;;17.23;5.50;;;;;;;;;;5015656;28;20197;-67
2022/12/06 09:42:30;;;;;;;14.73;5.40;;;;;;;;;;5012847;28;20175;-68
2022/12/06 09:45:13;;;;;;;9.00;4.83;;;;;;;;;;5019500;28;20182;-67
2022/12/06 09:48:05;;;;;;;12.37;5.43;;;;;;;;;;5011267;28;20191;-68
2022/12/06 09:50:44;;;;;;;8.00;4.60;;;;;;;;;;5008693;28;20198;-68
2022/12/06 09:53:25;;;;;;;10.87;5.60;;;;;;;;;;5014815;28;20181;-68
2022/12/06 09:56:05;;;;;;;9.70;5.10;;;;;;;;;;5009362;28;20187;-68
2022/12/06 09:58:33;;;;;;;16.10;5.30;;;;;;;;;;5012035;28;20260;-68
2022/12/06 10:01:30;;;;;;;12.17;5.70;;;;;;;;;;5007098;28;20325;-68
2022/12/06 10:04:06;;;;;;;9.93;5.07;;;;;;;;;;5013506;28;20191;-67
2022/12/06 10:06:53;;;;;;;10.27;5.00;;;;;;;;;;5011863;28;20211;-67
2022/12/06 10:09:50;;;;;;;15.43;5.37;;;;;;;;;;5013300;28;20615;-67
2022/12/06 10:12:35;;;;;;;10.53;4.83;;;;;;;;;;5009924;28;20183;-68
2022/12/06 10:15:18;;;;;;;9.30;5.13;;;;;;;;;;5007974;28;20292;-67
2022/12/06 10:17:59;;;;;;;8.87;4.63;;;;;;;;;;5008055;28;20229;-68
2022/12/06 10:21:12;;;;;;;7.63;4.23;;;;;;;;;;5011131;28;20187;-67
2022/12/06 10:23:58;;;;;;;7.00;4.00;;;;;;;;;;4992095;28;20717;-67
2022/12/06 10:26:43;;;;;;;8.30;3.57;;;;;;;;;;5009394;28;20344;-67
2022/12/06 10:29:17;;;;;;;5.67;3.07;;;;;;;;;;5011197;28;20190;-68
2022/12/06 10:32:04;;;;;;;8.47;4.10;;;;;;;;;;5011147;28;20671;-68
2022/12/06 10:34:56;;;;;;;5.70;3.07;;;;;;;;;;5012145;28;20831;-68
2022/12/06 10:38:04;;;;;;;7.80;3.60;;;;;;;;;;5017925;28;20182;-68
2022/12/06 10:40:48;;;;;;;6.60;2.53;;;;;;;;;;5012221;28;20187;-67
2022/12/06 10:43:22;;;;;;;3.90;2.20;;;;;;;;;;5014711;28;20233;-68
2022/12/06 10:49:00;;;;;;;6.33;3.03;;;;;;;;;;5013691;28;20206;-68
2022/12/06 10:51:37;;;;;;;4.57;2.20;;;;;;;;;;5012640;28;20560;-67
2022/12/06 10:54:16;;;;;;;3.10;2.20;;;;;;;;;;5015046;28;20182;-67
2022/12/06 10:56:43;;;;;;;7.00;2.50;;;;;;;;;;5014407;28;20183;-68
2022/12/06 10:59:20;;;;;;;6.10;2.50;;;;;;;;;;5012218;28;20219;-67
2022/12/06 11:01:46;;;;;;;3.73;2.60;;;;;;;;;;5016228;28;20240;-67
2022/12/06 11:04:17;;;;;;;6.57;2.40;;;;;;;;;;5013406;28;20178;-67
2022/12/06 11:06:47;;;;;;;2.90;2.60;;;;;;;;;;5012240;28;20203;-67
2022/12/06 11:09:31;;;;;;;5.83;2.40;;;;;;;;;;5010059;28;20194;-67
2022/12/06 11:11:56;;;;;;;4.17;2.47;;;;;;;;;;5014480;28;20684;-68
2022/12/06 11:14:37;;;;;;;5.73;2.63;;;;;;;;;;5010940;28;20179;-67
2022/12/06 11:17:17;;;;;;;8.57;2.30;;;;;;;;;;5014844;28;20510;-67
2022/12/06 11:19:50;;;;;;;2.97;2.00;;;;;;;;;;5015961;28;20200;-67
2022/12/06 11:22:35;;;;;;;3.27;1.73;;;;;;;;;;5010775;28;20269;-67
2022/12/06 11:25:22;;;;;;;2.53;1.80;;;;;;;;;;5014539;28;20387;-67
2022/12/06 11:27:51;;;;;;;3.20;2.03;;;;;;;;;;5015860;28;20178;-67
2022/12/06 11:30:18;;;;;;;3.60;2.10;;;;;;;;;;5017035;28;20250;-67
2022/12/06 11:32:47;;;;;;;4.30;1.63;;;;;;;;;;5010906;28;20186;-67
2022/12/06 11:35:21;;;;;;;5.73;1.90;;;;;;;;;;5008604;28;20316;-67
2022/12/06 11:37:53;;;;;;;4.30;2.63;;;;;;;;;;5015968;28;20265;-67
2022/12/06 11:40:25;;;;;;;5.10;2.00;;;;;;;;;;5024142;28;20259;-67
2022/12/06 11:42:50;;;;;;;5.57;2.17;;;;;;;;;;5018801;28;20237;-67
2022/12/06 11:45:29;;;;;;;5.67;2.17;;;;;;;;;;5030179;28;20189;-67
2022/12/06 11:47:55;;;;;;;4.03;2.27;;;;;;;;;;5021109;28;20244;-67
2022/12/06 11:50:22;;;;;;;3.77;1.90;;;;;;;;;;5011176;28;20179;-67
2022/12/06 11:52:56;;;;;;;5.70;2.50;;;;;;;;;;5014184;28;20179;-67
2022/12/06 11:55:26;;;;;;;9.13;3.77;;;;;;;;;;5014510;28;20265;-67
2022/12/06 11:58:00;;;;;;;4.80;2.80;;;;;;;;;;5014798;28;20191;-67
2022/12/06 12:00:27;;;;;;;4.17;2.17;;;;;;;;;;5026409;28;20209;-67
2022/12/06 12:02:55;;;;;;;5.37;2.13;;;;;;;;;;5025207;28;20229;-67
2022/12/06 12:05:35;;;;;;;6.57;2.70;;;;;;;;;;5014732;28;20746;-67
2022/12/06 12:08:05;;;;;;;3.07;1.90;;;;;;;;;;5014182;28;20213;-68
2022/12/06 12:10:38;;;;;;;3.07;1.70;;;;;;;;;;5012520;28;20193;-67
2022/12/06 12:15:54;;;;;;;3.20;1.70;;;;;;;;;;5016748;28;20201;-67
2022/12/06 12:18:28;;;;;;;4.27;2.20;;;;;;;;;;5011577;28;20198;-67
2022/12/06 12:20:56;;;;;;;2.60;1.77;;;;;;;;;;5015223;28;20190;-67
2022/12/06 12:23:30;;;;;;;5.73;1.97;;;;;;;;;;5021107;28;20531;-67
2022/12/06 12:26:19;;;;;;;6.63;1.80;;;;;;;;;;5034672;28;20561;-67
2022/12/06 12:29:01;;;;;;;4.17;1.70;;;;;;;;;;5026077;28;20185;-67
2022/12/06 12:31:26;;;;;;;4.83;1.97;;;;;;;;;;5025655;28;20579;-67
2022/12/06 12:34:11;;;;;;;4.40;2.10;;;;;;;;;;5015190;28;20186;-66
2022/12/06 12:36:36;;;;;;;3.60;2.00;;;;;;;;;;5020082;28;20198;-67
2022/12/06 12:39:02;;;;;;;8.03;1.97;;;;;;;;;;5008413;28;20193;-67
2022/12/06 12:41:31;;;;;;;4.43;1.70;;;;;;;;;;5009305;28;20182;-67
2022/12/06 12:44:11;;;;;;;3.87;2.10;;;;;;;;;;5010534;28;20183;-67
2022/12/06 12:46:41;;;;;;;7.70;1.73;;;;;;;;;;5012930;28;20209;-66
2022/12/06 12:49:35;;;;;;;4.53;2.87;;;;;;;;;;5015767;28;20742;-67
2022/12/06 12:52:19;;;;;;;3.43;2.00;;;;;;;;;;5012068;28;20570;-67
2022/12/06 12:55:16;;;;;;;6.87;3.07;;;;;;;;;;5011118;28;20183;-67
2022/12/06 12:57:45;;;;;;;6.93;3.50;;;;;;;;;;5010627;28;20210;-68
2022/12/06 13:00:17;;;;;;;5.93;2.63;;;;;;;;;;5012731;28;20210;-67
2022/12/06 13:02:48;;;;;;;11.73;4.13;;;;;;;;;;5020686;28;20430;-67
2022/12/06 13:05:18;;;;;;;4.60;2.40;;;;;;;;;;5019895;28;20270;-67
2022/12/06 13:07:45;;;;;;;4.13;1.60;;;;;;;;;;5011349;28;20569;-66
2022/12/06 13:10:28;;;;;;;5.03;1.47;;;;;;;;;;5021701;28;20292;-66
2022/12/06 13:13:11;;;;;;;4.47;1.93;;;;;;;;;;5014409;28;20239;-67
2022/12/06 13:15:46;;;;;;;4.50;1.67;;;;;;;;;;5010964;28;20602;-67
2022/12/06 13:18:28;;;;;;;5.83;1.53;;;;;;;;;;5030288;28;20189;-67
2022/12/06 13:20:58;;;;;;;6.13;1.73;;;;;;;;;;5025622;28;20261;-67
2022/12/06 13:23:27;;;;;;;4.93;2.33;;;;;;;;;;5026630;28;20204;-67
2022/12/06 13:26:14;;;;;;;7.87;2.00;;;;;;;;;;5015699;28;20602;-66
2022/12/06 13:28:52;;;;;;;5.53;1.70;;;;;;;;;;5022397;28;20204;-72
2022/12/06 13:31:21;;;;;;;5.00;2.50;;;;;;;;;;5016076;28;20183;-67
2022/12/06 13:33:52;;;;;;;7.33;2.50;;;;;;;;;;5017521;28;20187;-66
2022/12/06 13:36:18;;;;;;;6.20;2.00;;;;;;;;;;5006678;28;20197;-66
2022/12/06 13:38:44;;;;;;;4.87;1.93;;;;;;;;;;5009336;28;20183;-67
2022/12/06 13:44:41;;;;;;;5.40;2.00;;;;;;;;;;5027443;28;20196;-67
2022/12/06 13:47:25;;;;;;;5.20;2.30;;;;;;;;;;5018393;28;20221;-67
2022/12/06 13:49:52;;;;;;;6.27;2.00;;;;;;;;;;5022039;28;20190;-67
2022/12/06 13:52:42;;;;;;;4.40;2.10;;;;;;;;;;5012651;28;20202;-67
2022/12/06 13:55:37;;;;;;;4.80;2.00;;;;;;;;;;5013761;28;20264;-66
2022/12/06 13:58:02;;;;;;;4.50;1.70;;;;;;;;;;5008482;28;20179;-67
2022/12/06 14:00:30;;;;;;;5.00;1.90;;;;;;;;;;5011371;28;20264;-67
2022/12/06 14:03:02;;;;;;;5.07;2.33;;;;;;;;;;5015003;28;20329;-67
2022/12/06 14:06:05;;;;;;;6.43;2.83;;;;;;;;;;5010127;28;20235;-66
2022/12/06 14:08:35;;;;;;;6.63;2.47;;;;;;;;;;5015587;28;20194;-67
2022/12/06 14:11:14;;;;;;;14.47;6.97;;;;;;;;;;5013759;28;20285;-67
2022/12/06 14:13:57;;;;;;;7.57;2.33;;;;;;;;;;5020825;28;20692;-67
2022/12/06 14:16:31;;;;;;;4.70;2.00;;;;;;;;;;5018853;28;20562;-66
2022/12/06 14:18:57;;;;;;;6.17;1.87;;;;;;;;;;5012352;28;20232;-67
2022/12/06 14:21:29;;;;;;;5.10;2.37;;;;;;;;;;5014513;28;20212;-67
2022/12/06 14:23:54;;;;;;;8.27;2.60;;;;;;;;;;5020474;28;20190;-66
2022/12/06 14:26:24;;;;;;;11.80;6.27;;;;;;;;;;5012427;28;20324;-67
2022/12/06 14:28:52;;;;;;;7.70;3.00;;;;;;;;;;5012572;28;20535;-66
2022/12/06 14:31:22;;;;;;;7.77;2.30;;;;;;;;;;5012646;28;20196;-66
2022/12/06 14:33:48;;;;;;;6.10;3.10;;;;;;;;;;5011723;28;20193;-67
2022/12/06 14:36:18;;;;;;;5.23;2.13;;;;;;;;;;5009938;28;20265;-67
2022/12/06 14:38:50;;;;;;;6.43;2.97;;;;;;;;;;5012470;28;20187;-67
2022/12/06 14:44:17;;;;;;;10.80;4.83;;;;;;;;;;5013965;28;20244;-67
2022/12/06 14:46:45;;;;;;;8.73;4.63;;;;;;;;;;5011919;28;20285;-67
2022/12/06 14:52:14;;;;;;;6.63;3.00;;;;;;;;;;5012790;28;20198;-67
2022/12/06 14:54:43;;;;;;;5.00;2.13;;;;;;;;;;5010901;28;20251;-67
2022/12/06 14:57:23;;;;;;;6.97;2.90;;;;;;;;;;5012993;28;20233;-67
2022/12/06 14:59:59;;;;;;;8.13;3.00;;;;;;;;;;5008750;28;20685;-67
2022/12/06 15:02:28;;;;;;;5.03;2.67;;;;;;;;;;5012956;28;20221;-67
2022/12/06 15:04:53;;;;;;;9.23;3.83;;;;;;;;;;5011581;28;20640;-67
2022/12/06 15:07:40;;;;;;;5.00;2.03;;;;;;;;;;5011684;28;20194;-67
2022/12/06 15:10:14;;;;;;;4.07;2.30;;;;;;;;;;5013683;28;20228;-67
2022/12/06 15:12:54;;;;;;;4.87;2.37;;;;;;;;;;5011594;28;20229;-67
2022/12/06 15:15:37;;;;;;;6.87;2.10;;;;;;;;;;5012599;28;20182;-67
2022/12/06 15:18:17;;;;;;;8.10;2.20;;;;;;;;;;5012984;28;20197;-66
2022/12/06 15:20:42;;;;;;;3.13;1.73;;;;;;;;;;5010162;28;20556;-67
2022/12/06 15:23:39;;;;;;;5.13;2.47;;;;;;;;;;5010453;28;20264;-67
2022/12/06 15:26:08;;;;;;;5.87;2.50;;;;;;;;;;5012116;28;20641;-67
2022/12/06 15:28:34;;;;;;;6.50;2.87;;;;;;;;;;5010213;28;20266;-66
2022/12/06 15:31:03;;;;;;;7.93;3.27;;;;;;;;;;5014102;28;20265;-67